Ft Sturla — IBXV — position and weather

sailwx.info

Track history (hours):
 
Tides and Currents Weather Stations Pressure Air Temp Water Temp Dewpoint Dewpoint Depression Visibility Wind Speed Wind Dir Waves Ship Positions

Ft Sturla

Last reported at 2015-Jan-22 00:23 UTC. Time now 2015-Jan-28 20:13 UTC.
Position N 36°41' E 014°33'.

Length 120 m; draft 5.6 m.

Type: Tanker. MMSI: 247282200.

Date/timePositionNaut miles runAvg speedWind from/ knotsBaromVisibWave heightAir tempDewpointWater temp
2015-Jan-22 00:23N 36°41' E 014°33'1012.1
2015-Jan-21 23:33N 36°44' E 014°21'811.8
2015-Jan-21 22:50N 36°48' E 014°12'111.8
2015-Jan-21 22:46N 36°49' E 014°11'311.8
2015-Jan-21 22:33N 36°50' E 014°09'1211.8
2015-Jan-21 21:33N 36°56' E 013°56'  
2015-Jan-18 09:33N 37°03' E 013°41'1212.1
2015-Jan-18 08:34N 36°57' E 013°54'1212.4
2015-Jan-18 07:33N 36°51' E 014°07'1212.2
2015-Jan-18 06:33N 36°43' E 014°19'8 8.2
2015-Jan-18 05:33N 36°42' E 014°29'1512.6
2015-Jan-18 04:23N 36°39' E 014°47'100 4.7
2015-Jan-17 07:18N 38°11' E 015°35'11111.2
2015-Jan-16 21:26N 39°32' E 013°58'1111.8
2015-Jan-16 20:29N 39°40' E 013°48'27411.0
2015-Jan-15 19:29N 43°01' E 009°40'1311.5
2015-Jan-15 18:22N 43°14' E 009°42'911.7
2015-Jan-15 17:33N 43°24' E 009°43'1111.4
2015-Jan-15 16:33N 43°35' E 009°46'1110.8
2015-Jan-15 15:33N 43°46' E 009°48'1111.5
2015-Jan-15 14:33N 43°57' E 009°52'9 9.3
2015-Jan-15 13:33N 44°06' E 009°51'0 0.0
2015-Jan-15 12:33N 44°06' E 009°51'0 0.0
2015-Jan-15 11:33N 44°06' E 009°51'0 0.0
2015-Jan-15 10:33N 44°06' E 009°51'0 0.0
2015-Jan-15 09:33N 44°06' E 009°51'0 0.0
2015-Jan-15 08:30N 44°06' E 009°51'0 0.0
2015-Jan-15 07:33N 44°06' E 009°51'0 0.0
2015-Jan-15 06:33N 44°06' E 009°51'0 0.0
2015-Jan-15 05:33N 44°06' E 009°51'0 0.0
2015-Jan-15 04:33N 44°06' E 009°51'0 0.0
2015-Jan-15 03:33N 44°06' E 009°51'0 0.0
2015-Jan-15 02:33N 44°06' E 009°51'0 0.0
2015-Jan-15 01:33N 44°06' E 009°51'0 0.0
2015-Jan-15 00:33N 44°06' E 009°51'0 0.0
2015-Jan-14 23:33N 44°06' E 009°51'0 0.0
2015-Jan-14 22:33N 44°06' E 009°51'0 0.0
2015-Jan-14 21:33N 44°06' E 009°51'0 0.0
2015-Jan-14 20:33N 44°06' E 009°51'0 0.0
2015-Jan-14 19:33N 44°06' E 009°51'0 0.0
2015-Jan-14 18:33N 44°06' E 009°51'0 0.0
2015-Jan-14 17:33N 44°06' E 009°51'0 0.0
2015-Jan-14 16:33N 44°06' E 009°51'0 0.0
2015-Jan-14 15:33N 44°06' E 009°51'0 0.0
2015-Jan-14 14:33N 44°06' E 009°51'0 0.0
2015-Jan-14 13:33N 44°06' E 009°51'0 0.0
2015-Jan-14 12:33N 44°06' E 009°51'0 0.0
2015-Jan-14 11:33N 44°06' E 009°51'0 0.0
2015-Jan-14 10:33N 44°06' E 009°51'0 0.0
2015-Jan-14 09:33N 44°06' E 009°51'0 0.0
2015-Jan-14 08:33N 44°06' E 009°51'0 0.0
2015-Jan-14 07:33N 44°06' E 009°51'0 0.0
2015-Jan-14 06:33N 44°06' E 009°51'0 0.0
2015-Jan-14 05:33N 44°06' E 009°51'0 0.0
2015-Jan-14 04:33N 44°06' E 009°51'0 0.0
2015-Jan-14 03:33N 44°06' E 009°51'0 0.0
2015-Jan-14 02:33N 44°06' E 009°51'0 0.0
2015-Jan-14 01:33N 44°06' E 009°51'0 0.0
2015-Jan-14 00:33N 44°06' E 009°51'0 0.0
2015-Jan-13 23:33N 44°06' E 009°51'0 0.0
2015-Jan-13 22:33N 44°06' E 009°51'0 0.0
2015-Jan-13 21:33N 44°06' E 009°51'0 0.0
2015-Jan-13 20:33N 44°06' E 009°51'0 0.0
2015-Jan-13 19:33N 44°06' E 009°51'0 0.0
2015-Jan-13 18:33N 44°06' E 009°51'0 0.0
2015-Jan-13 17:33N 44°06' E 009°51'0 0.0
2015-Jan-13 16:33N 44°06' E 009°51'0 0.0
2015-Jan-13 15:33N 44°06' E 009°51'0 0.0
2015-Jan-13 14:33N 44°06' E 009°51'0 0.0
2015-Jan-13 13:33N 44°06' E 009°51'0 0.0
2015-Jan-13 12:33N 44°06' E 009°51'0 0.0
2015-Jan-13 11:33N 44°06' E 009°51'0 0.0
2015-Jan-13 10:33N 44°06' E 009°51'0 0.0
2015-Jan-13 09:33N 44°06' E 009°51'0 0.0
2015-Jan-13 08:33N 44°06' E 009°51'0 0.0
2015-Jan-13 07:33N 44°06' E 009°51'2 1.8
2015-Jan-13 06:33N 44°04' E 009°51'2 2.1
2015-Jan-13 05:33N 44°03' E 009°53'0 0.0
2015-Jan-13 04:33N 44°03' E 009°53'0 0.0
2015-Jan-13 03:33N 44°03' E 009°53'0 0.0
2015-Jan-13 02:33N 44°03' E 009°53'0 0.0
2015-Jan-13 01:33N 44°03' E 009°53'0 0.0
2015-Jan-13 00:33N 44°03' E 009°53'0 0.0
2015-Jan-12 23:33N 44°03' E 009°53'0 0.0
2015-Jan-12 22:33N 44°03' E 009°53'0 0.0
2015-Jan-12 21:33N 44°03' E 009°53'0 0.0
2015-Jan-12 20:33N 44°03' E 009°53'0 0.0
2015-Jan-12 19:33N 44°03' E 009°53'0 0.0
2015-Jan-12 18:33N 44°03' E 009°53'0 0.0
2015-Jan-12 17:33N 44°03' E 009°53'0 0.1
2015-Jan-12 16:33N 44°03' E 009°53'0 0.0
2015-Jan-12 15:33N 44°03' E 009°53'0 0.0
2015-Jan-12 14:33N 44°03' E 009°53'0 0.0
2015-Jan-12 13:33N 44°03' E 009°53'0 0.0
2015-Jan-12 12:33N 44°03' E 009°53'0 0.0
2015-Jan-12 11:33N 44°03' E 009°53'0 0.0
2015-Jan-12 10:33N 44°03' E 009°53'0 0.0
2015-Jan-12 09:33N 44°03' E 009°53'0 0.1
2015-Jan-12 08:33N 44°03' E 009°53'0 0.1
2015-Jan-12 07:33N 44°03' E 009°53'6 6.5
2015-Jan-12 06:33N 43°59' E 009°60'6 6.1
2015-Jan-12 05:33N 43°54' E 009°55'1211.8
2015-Jan-12 04:33N 43°50' E 009°40'1211.6
2015-Jan-12 03:33N 43°48' E 009°24'1111.1
2015-Jan-12 02:33N 43°46' E 009°09'1111.4
2015-Jan-12 01:33N 43°42' E 008°54'1111.0
2015-Jan-12 00:33N 43°40' E 008°39'  
Track history (hours):
 
Tides and Currents Weather Stations Pressure Air Temp Water Temp Dewpoint Dewpoint Depression Visibility Wind Speed Wind Dir Waves Ship Positions

Ft Sturla

Last reported at 2015-Jan-22 00:23 UTC. Time now 2015-Jan-28 20:13 UTC.
Position N 36°41' E 014°33'.

Length 120 m; draft 5.6 m.

Type: Tanker. MMSI: 247282200.

Date/timePositionNaut miles runAvg speedWind from/ knotsBaromVisibWave heightAir tempDewpointWater temp
2015-Jan-22 00:23N 36°41' E 014°33'1012.1
2015-Jan-21 23:33N 36°44' E 014°21'811.8
2015-Jan-21 22:50N 36°48' E 014°12'111.8
2015-Jan-21 22:46N 36°49' E 014°11'311.8
2015-Jan-21 22:33N 36°50' E 014°09'1211.8
2015-Jan-21 21:33N 36°56' E 013°56'  
2015-Jan-18 09:33N 37°03' E 013°41'1212.1
2015-Jan-18 08:34N 36°57' E 013°54'1212.4
2015-Jan-18 07:33N 36°51' E 014°07'1212.2
2015-Jan-18 06:33N 36°43' E 014°19'8 8.2
2015-Jan-18 05:33N 36°42' E 014°29'1512.6
2015-Jan-18 04:23N 36°39' E 014°47'100 4.7
2015-Jan-17 07:18N 38°11' E 015°35'11111.2
2015-Jan-16 21:26N 39°32' E 013°58'1111.8
2015-Jan-16 20:29N 39°40' E 013°48'27411.0
2015-Jan-15 19:29N 43°01' E 009°40'1311.5
2015-Jan-15 18:22N 43°14' E 009°42'911.7
2015-Jan-15 17:33N 43°24' E 009°43'1111.4
2015-Jan-15 16:33N 43°35' E 009°46'1110.8
2015-Jan-15 15:33N 43°46' E 009°48'1111.5
2015-Jan-15 14:33N 43°57' E 009°52'9 9.3
2015-Jan-15 13:33N 44°06' E 009°51'0 0.0
2015-Jan-15 12:33N 44°06' E 009°51'0 0.0
2015-Jan-15 11:33N 44°06' E 009°51'0 0.0
2015-Jan-15 10:33N 44°06' E 009°51'0 0.0
2015-Jan-15 09:33N 44°06' E 009°51'0 0.0
2015-Jan-15 08:30N 44°06' E 009°51'0 0.0
2015-Jan-15 07:33N 44°06' E 009°51'0 0.0
2015-Jan-15 06:33N 44°06' E 009°51'0 0.0
2015-Jan-15 05:33N 44°06' E 009°51'0 0.0
2015-Jan-15 04:33N 44°06' E 009°51'0 0.0
2015-Jan-15 03:33N 44°06' E 009°51'0 0.0
2015-Jan-15 02:33N 44°06' E 009°51'0 0.0
2015-Jan-15 01:33N 44°06' E 009°51'0 0.0
2015-Jan-15 00:33N 44°06' E 009°51'0 0.0
2015-Jan-14 23:33N 44°06' E 009°51'0 0.0
2015-Jan-14 22:33N 44°06' E 009°51'0 0.0
2015-Jan-14 21:33N 44°06' E 009°51'0 0.0
2015-Jan-14 20:33N 44°06' E 009°51'0 0.0
2015-Jan-14 19:33N 44°06' E 009°51'0 0.0
2015-Jan-14 18:33N 44°06' E 009°51'0 0.0
2015-Jan-14 17:33N 44°06' E 009°51'0 0.0
2015-Jan-14 16:33N 44°06' E 009°51'0 0.0
2015-Jan-14 15:33N 44°06' E 009°51'0 0.0
2015-Jan-14 14:33N 44°06' E 009°51'0 0.0
2015-Jan-14 13:33N 44°06' E 009°51'0 0.0
2015-Jan-14 12:33N 44°06' E 009°51'0 0.0
2015-Jan-14 11:33N 44°06' E 009°51'0 0.0
2015-Jan-14 10:33N 44°06' E 009°51'0 0.0
2015-Jan-14 09:33N 44°06' E 009°51'0 0.0
2015-Jan-14 08:33N 44°06' E 009°51'0 0.0
2015-Jan-14 07:33N 44°06' E 009°51'0 0.0
2015-Jan-14 06:33N 44°06' E 009°51'0 0.0
2015-Jan-14 05:33N 44°06' E 009°51'0 0.0
2015-Jan-14 04:33N 44°06' E 009°51'0 0.0
2015-Jan-14 03:33N 44°06' E 009°51'0 0.0
2015-Jan-14 02:33N 44°06' E 009°51'0 0.0
2015-Jan-14 01:33N 44°06' E 009°51'0 0.0
2015-Jan-14 00:33N 44°06' E 009°51'0 0.0
2015-Jan-13 23:33N 44°06' E 009°51'0 0.0
2015-Jan-13 22:33N 44°06' E 009°51'0 0.0
2015-Jan-13 21:33N 44°06' E 009°51'0 0.0
2015-Jan-13 20:33N 44°06' E 009°51'0 0.0
2015-Jan-13 19:33N 44°06' E 009°51'0 0.0
2015-Jan-13 18:33N 44°06' E 009°51'0 0.0
2015-Jan-13 17:33N 44°06' E 009°51'0 0.0
2015-Jan-13 16:33N 44°06' E 009°51'0 0.0
2015-Jan-13 15:33N 44°06' E 009°51'0 0.0
2015-Jan-13 14:33N 44°06' E 009°51'0 0.0
2015-Jan-13 13:33N 44°06' E 009°51'0 0.0
2015-Jan-13 12:33N 44°06' E 009°51'0 0.0
2015-Jan-13 11:33N 44°06' E 009°51'0 0.0
2015-Jan-13 10:33N 44°06' E 009°51'0 0.0
2015-Jan-13 09:33N 44°06' E 009°51'0 0.0
2015-Jan-13 08:33N 44°06' E 009°51'0 0.0
2015-Jan-13 07:33N 44°06' E 009°51'2 1.8
2015-Jan-13 06:33N 44°04' E 009°51'2 2.1
2015-Jan-13 05:33N 44°03' E 009°53'0 0.0
2015-Jan-13 04:33N 44°03' E 009°53'0 0.0
2015-Jan-13 03:33N 44°03' E 009°53'0 0.0
2015-Jan-13 02:33N 44°03' E 009°53'0 0.0
2015-Jan-13 01:33N 44°03' E 009°53'0 0.0
2015-Jan-13 00:33N 44°03' E 009°53'0 0.0
2015-Jan-12 23:33N 44°03' E 009°53'0 0.0
2015-Jan-12 22:33N 44°03' E 009°53'0 0.0
2015-Jan-12 21:33N 44°03' E 009°53'0 0.0
2015-Jan-12 20:33N 44°03' E 009°53'0 0.0
2015-Jan-12 19:33N 44°03' E 009°53'0 0.0
2015-Jan-12 18:33N 44°03' E 009°53'0 0.0
2015-Jan-12 17:33N 44°03' E 009°53'0 0.1
2015-Jan-12 16:33N 44°03' E 009°53'0 0.0
2015-Jan-12 15:33N 44°03' E 009°53'0 0.0
2015-Jan-12 14:33N 44°03' E 009°53'0 0.0
2015-Jan-12 13:33N 44°03' E 009°53'0 0.0
2015-Jan-12 12:33N 44°03' E 009°53'0 0.0
2015-Jan-12 11:33N 44°03' E 009°53'0 0.0
2015-Jan-12 10:33N 44°03' E 009°53'0 0.0
2015-Jan-12 09:33N 44°03' E 009°53'0 0.1
2015-Jan-12 08:33N 44°03' E 009°53'0 0.1
2015-Jan-12 07:33N 44°03' E 009°53'6 6.5
2015-Jan-12 06:33N 43°59' E 009°60'6 6.1
2015-Jan-12 05:33N 43°54' E 009°55'1211.8
2015-Jan-12 04:33N 43°50' E 009°40'1211.6
2015-Jan-12 03:33N 43°48' E 009°24'1111.1
2015-Jan-12 02:33N 43°46' E 009°09'1111.4
2015-Jan-12 01:33N 43°42' E 008°54'1111.0
2015-Jan-12 00:33N 43°40' E 008°39'  

Dump ship's entire track history